createdAt,value
2022-08-23T00:00:47.790Z,100638.27
2022-08-23T00:03:22.128Z,100638.48
2022-08-23T00:05:54.776Z,100629.88
2022-08-23T00:08:26.954Z,100642.77
2022-08-23T00:10:59.173Z,100646.09
2022-08-23T00:13:47.854Z,100640.73
2022-08-23T00:16:20.661Z,100636.84
2022-08-23T00:18:53.038Z,100638.28
2022-08-23T00:21:25.591Z,100634.39
2022-08-23T00:23:58.142Z,100636.65
2022-08-23T00:26:49.669Z,100632.13
2022-08-23T00:29:22.853Z,100603.19
2022-08-23T00:31:57.480Z,100614.52
2022-08-23T00:34:30.756Z,100614.81
2022-08-23T00:37:03.737Z,100617.61
2022-08-23T00:39:36.447Z,100611.95
2022-08-23T00:42:26.717Z,100610.84
2022-08-23T00:45:19.028Z,100611.11
2022-08-23T00:47:51.835Z,100616.30
2022-08-23T00:50:31.271Z,100617.86
2022-08-23T00:53:12.151Z,100609.33
2022-08-23T00:55:49.922Z,100604.79
2022-08-23T00:58:23.388Z,100602.29
2022-08-23T01:00:57.136Z,100604.53
2022-08-23T01:03:38.778Z,100606.98
2022-08-23T01:06:16.234Z,100611.10
2022-08-23T01:08:55.543Z,100617.15
2022-08-23T01:11:32.970Z,100619.55
2022-08-23T01:14:12.116Z,100620.84
2022-08-23T01:16:48.520Z,100619.77
2022-08-23T01:19:31.786Z,100616.86
2022-08-23T01:22:11.279Z,100617.51
2022-08-23T01:25:06.247Z,100620.70
2022-08-23T01:27:38.587Z,100614.04
2022-08-23T01:30:15.157Z,100619.30
2022-08-23T01:32:50.337Z,100620.27
2022-08-23T01:38:04.322Z,100617.83
2022-08-23T01:40:37.341Z,100617.11
2022-08-23T01:43:10.694Z,100607.06
2022-08-23T01:45:44.311Z,100621.27
2022-08-23T01:48:17.807Z,100621.23
2022-08-23T01:50:50.451Z,100625.15
2022-08-23T01:53:22.746Z,100617.86
2022-08-23T01:55:55.415Z,100621.06
2022-08-23T01:58:28.135Z,100622.23
2022-08-23T02:01:04.753Z,100619.04
2022-08-23T02:03:38.992Z,100617.36
2022-08-23T02:06:11.308Z,100610.88
2022-08-23T02:09:04.788Z,100612.96
2022-08-23T02:11:45.641Z,100596.89
2022-08-23T02:14:20.656Z,100615.17
2022-08-23T02:17:03.457Z,100613.06
2022-08-23T02:19:39.612Z,100610.11
2022-08-23T02:22:12.841Z,100610.71
2022-08-23T02:24:47.699Z,100611.12
2022-08-23T02:27:21.263Z,100591.06
2022-08-23T02:29:53.891Z,100595.87
2022-08-23T02:32:27.292Z,100602.86
2022-08-23T02:35:05.025Z,100604.59
2022-08-23T02:37:38.472Z,100604.90
2022-08-23T02:40:13.080Z,100596.92
2022-08-23T02:42:46.083Z,100604.38
2022-08-23T02:45:19.029Z,100608.00
2022-08-23T02:47:52.792Z,100611.65
2022-08-23T02:50:30.769Z,100610.34
2022-08-23T02:53:03.643Z,100616.39
2022-08-23T02:55:37.051Z,100613.73
2022-08-23T02:58:09.342Z,100615.91
2022-08-23T03:00:42.754Z,100618.31
2022-08-23T03:03:16.197Z,100621.48
2022-08-23T03:05:49.841Z,100628.25
2022-08-23T03:08:24.493Z,100624.29
2022-08-23T03:10:57.042Z,100634.59
2022-08-23T03:13:29.650Z,100633.64
2022-08-23T03:16:02.865Z,100638.88
2022-08-23T03:18:35.875Z,100640.15
2022-08-23T03:21:12.211Z,100649.39
2022-08-23T03:23:45.348Z,100651.34
2022-08-23T03:26:18.890Z,100648.46
2022-08-23T03:28:51.064Z,100635.39
2022-08-23T03:31:23.436Z,100646.16
2022-08-23T03:34:05.522Z,100640.98
2022-08-23T03:36:38.651Z,100642.20
2022-08-23T03:39:10.971Z,100638.50
2022-08-23T03:41:43.483Z,100641.48
2022-08-23T03:44:16.603Z,100625.62
2022-08-23T03:46:50.657Z,100646.48
2022-08-23T03:49:22.750Z,100642.77
2022-08-23T03:51:58.534Z,100646.78
2022-08-23T03:54:31.220Z,100647.75
2022-08-23T03:57:05.220Z,100646.08
2022-08-23T03:59:40.630Z,100649.33
2022-08-23T04:02:16.294Z,100641.91
2022-08-23T04:04:48.922Z,100646.16
2022-08-23T04:07:37.873Z,100652.02
2022-08-23T04:10:15.662Z,100653.03
2022-08-23T04:12:48.325Z,100648.50
2022-08-23T04:15:21.450Z,100647.86
2022-08-23T04:17:53.800Z,100646.35
2022-08-23T04:20:27.213Z,100641.53
2022-08-23T04:23:04.935Z,100649.83
2022-08-23T04:25:45.909Z,100649.15
2022-08-23T04:28:20.151Z,100648.95
2022-08-23T04:30:52.904Z,100646.40
2022-08-23T04:33:25.126Z,100648.45
2022-08-23T04:35:57.530Z,100655.83
2022-08-23T04:38:30.669Z,100655.50
2022-08-23T04:41:24.526Z,100658.30
2022-08-23T04:43:57.635Z,100650.70
2022-08-23T04:46:30.442Z,100643.83
2022-08-23T04:49:04.122Z,100649.70
2022-08-23T04:51:36.373Z,100643.02
2022-08-23T04:54:09.798Z,100644.11
2022-08-23T04:56:56.591Z,100635.87
2022-08-23T04:59:29.174Z,100647.05
2022-08-23T05:02:01.311Z,100645.73
2022-08-23T05:04:33.888Z,100638.91
2022-08-23T05:07:06.427Z,100640.97
2022-08-23T05:09:39.054Z,100640.30
2022-08-23T05:12:13.382Z,100640.46
2022-08-23T05:14:47.907Z,100633.20
2022-08-23T05:17:21.228Z,100640.88
2022-08-23T05:19:54.022Z,100646.44
2022-08-23T05:22:26.312Z,100653.66
2022-08-23T05:25:20.326Z,100657.25
2022-08-23T05:27:52.417Z,100662.39
2022-08-23T05:30:24.687Z,100643.04
2022-08-23T05:32:57.389Z,100643.13
2022-08-23T05:35:31.800Z,100634.66
2022-08-23T05:38:04.685Z,100625.17
2022-08-23T05:40:37.394Z,100618.89
2022-08-23T05:43:15.154Z,100615.10
2022-08-23T05:45:48.423Z,100615.07
2022-08-23T05:48:21.676Z,100599.18
2022-08-23T05:50:58.428Z,100618.09
2022-08-23T05:53:31.167Z,100616.20
2022-08-23T05:56:16.510Z,100617.34
2022-08-23T05:58:49.685Z,100628.33
2022-08-23T06:01:23.577Z,100639.21
2022-08-23T06:03:59.850Z,100651.32
2022-08-23T06:06:36.928Z,100656.94
2022-08-23T06:09:13.377Z,100656.67
2022-08-23T06:11:49.049Z,100655.57
2022-08-23T06:14:23.786Z,100655.73
2022-08-23T06:16:56.628Z,100658.91
2022-08-23T06:19:36.098Z,100662.72
2022-08-23T06:22:44.235Z,100647.48
2022-08-23T06:25:16.813Z,100666.39
2022-08-23T06:27:59.659Z,100669.04
2022-08-23T06:30:32.517Z,100667.27
2022-08-23T06:33:05.617Z,100662.27
2022-08-23T06:35:40.276Z,100659.59
2022-08-23T06:38:15.508Z,100658.38
2022-08-23T06:41:02.480Z,100659.59
2022-08-23T06:43:54.768Z,100663.63
2022-08-23T06:46:38.603Z,100666.48
2022-08-23T06:49:11.516Z,100670.80
2022-08-23T06:51:46.940Z,100672.41
2022-08-23T06:54:26.701Z,100650.38
2022-08-23T06:57:25.693Z,100670.34
2022-08-23T07:00:24.162Z,100674.50
2022-08-23T07:03:18.038Z,100678.52
2022-08-23T07:06:09.560Z,100682.86
2022-08-23T07:08:42.774Z,100672.50
2022-08-23T07:11:15.145Z,100678.91
2022-08-23T07:13:48.233Z,100674.96
2022-08-23T07:16:21.095Z,100679.91
2022-08-23T07:18:55.641Z,100687.91
2022-08-23T07:21:28.097Z,100695.42
2022-08-23T07:24:01.244Z,100699.11
2022-08-23T07:26:34.256Z,100689.21
2022-08-23T07:29:07.890Z,100700.59
2022-08-23T07:31:45.913Z,100705.54
2022-08-23T07:34:19.669Z,100703.25
2022-08-23T07:36:53.306Z,100702.73
2022-08-23T07:39:27.328Z,100703.67
2022-08-23T07:42:01.640Z,100682.27
2022-08-23T07:44:54.838Z,100704.05
2022-08-23T07:47:30.587Z,100707.45
2022-08-23T07:50:04.574Z,100716.02
2022-08-23T07:52:38.420Z,100722.08
2022-08-23T07:55:12.063Z,100723.38
2022-08-23T07:58:07.258Z,100723.24
2022-08-23T08:00:47.756Z,100724.73
2022-08-23T08:03:49.085Z,100710.72
2022-08-23T08:06:31.300Z,100727.81
2022-08-23T08:09:04.500Z,100727.41
2022-08-23T08:11:37.857Z,100726.55
2022-08-23T08:14:12.221Z,100728.88
2022-08-23T08:16:52.514Z,100726.86
2022-08-23T08:19:42.527Z,100730.30
2022-08-23T08:22:33.969Z,100734.08
2022-08-23T08:25:34.496Z,100738.34
2022-08-23T08:28:15.195Z,100738.14
2022-08-23T08:30:48.780Z,100741.77
2022-08-23T08:33:21.167Z,100743.83
2022-08-23T08:35:59.342Z,100751.52
2022-08-23T08:38:32.732Z,100748.43
2022-08-23T08:41:20.639Z,100755.36
2022-08-23T08:44:03.832Z,100749.55
2022-08-23T08:46:45.258Z,100751.23
2022-08-23T08:49:35.043Z,100747.58
2022-08-23T08:52:16.438Z,100752.15
2022-08-23T08:54:53.187Z,100752.41
2022-08-23T08:57:27.699Z,100748.88
2022-08-23T09:00:04.328Z,100746.07
2022-08-23T09:02:38.586Z,100747.52
2022-08-23T09:05:18.116Z,100746.57
2022-08-23T09:08:02.824Z,100743.95
2022-08-23T09:10:51.598Z,100738.02
2022-08-23T09:13:53.958Z,100744.95
2022-08-23T09:16:36.618Z,100747.97
2022-08-23T09:19:09.977Z,100754.21
2022-08-23T09:21:47.632Z,100758.98
2022-08-23T09:24:19.893Z,100762.27
2022-08-23T09:27:04.379Z,100763.73
2022-08-23T09:29:39.748Z,100764.88
2022-08-23T09:32:29.752Z,100765.85
2022-08-23T09:35:16.076Z,100767.51
2022-08-23T09:37:57.619Z,100768.88
2022-08-23T09:40:41.066Z,100764.89
2022-08-23T09:43:19.406Z,100764.52
2022-08-23T09:46:02.225Z,100767.35
2022-08-23T09:48:41.431Z,100765.90
2022-08-23T09:51:24.013Z,100770.77
2022-08-23T09:54:09.902Z,100771.66
2022-08-23T09:56:45.404Z,100768.64
2022-08-23T09:59:33.715Z,100768.12
2022-08-23T10:02:27.239Z,100769.96
2022-08-23T10:05:04.123Z,100773.39
2022-08-23T10:07:42.338Z,100768.42
2022-08-23T10:10:23.683Z,100749.97
2022-08-23T10:12:59.198Z,100771.34
2022-08-23T10:15:49.605Z,100772.23
2022-08-23T10:18:34.860Z,100776.27
2022-08-23T10:21:09.299Z,100780.71
2022-08-23T10:23:49.889Z,100780.09
2022-08-23T10:26:28.291Z,100769.98
2022-08-23T10:29:27.348Z,100780.20
2022-08-23T10:32:08.821Z,100757.29
2022-08-23T10:35:04.115Z,100776.08
2022-08-23T10:37:52.190Z,100776.34
2022-08-23T10:40:29.556Z,100782.77
2022-08-23T10:43:15.746Z,100780.83
2022-08-23T10:45:50.138Z,100779.92
2022-08-23T10:48:33.274Z,100781.00
2022-08-23T10:51:11.000Z,100777.18
2022-08-23T10:53:47.373Z,100785.69
2022-08-23T10:56:21.101Z,100783.16
2022-08-23T10:59:02.413Z,100781.41
2022-08-23T11:01:44.672Z,100779.23
2022-08-23T11:04:28.266Z,100775.81
2022-08-23T11:07:23.793Z,100777.81
2022-08-23T11:10:16.772Z,100777.19
2022-08-23T11:12:59.524Z,100781.04
2022-08-23T11:15:44.529Z,100779.88
2022-08-23T11:18:45.362Z,100774.50
2022-08-23T11:21:51.244Z,100775.52
2022-08-23T11:24:50.331Z,100774.31
2022-08-23T11:27:38.321Z,100775.13
2022-08-23T11:30:50.900Z,100778.35
2022-08-23T11:33:36.744Z,100772.98
2022-08-23T11:36:22.072Z,100758.82
2022-08-23T11:39:09.298Z,100763.11
2022-08-23T11:42:07.312Z,100759.62
2022-08-23T11:44:48.273Z,100753.67
2022-08-23T11:47:39.778Z,100766.19
2022-08-23T11:50:30.700Z,100767.20
2022-08-23T11:53:34.520Z,100761.34
2022-08-23T11:56:24.409Z,100766.84
2022-08-23T11:59:09.228Z,100765.34
2022-08-23T12:01:45.618Z,100762.50
2022-08-23T12:04:37.524Z,100761.08
2022-08-23T12:07:13.335Z,100763.39
2022-08-23T12:10:03.437Z,100747.53
2022-08-23T12:12:41.860Z,100759.33
2022-08-23T12:15:19.815Z,100755.70
2022-08-23T12:18:12.630Z,100758.11
2022-08-23T12:20:48.214Z,100757.30
2022-08-23T12:23:23.240Z,100755.44
2022-08-23T12:26:11.221Z,100752.87
2022-08-23T12:28:50.689Z,100749.84
2022-08-23T12:31:33.500Z,100749.65
2022-08-23T12:34:19.811Z,100748.32
2022-08-23T12:37:05.451Z,100754.50
2022-08-23T12:39:49.690Z,100754.88
2022-08-23T12:42:29.298Z,100754.34
2022-08-23T12:45:13.621Z,100757.42
2022-08-23T12:47:58.202Z,100759.10
2022-08-23T12:50:32.576Z,100758.69
2022-08-23T12:53:09.222Z,100758.61
2022-08-23T12:55:45.956Z,100758.48
2022-08-23T12:58:31.501Z,100737.30
2022-08-23T13:01:08.971Z,100753.61
2022-08-23T13:03:45.338Z,100752.86
2022-08-23T13:06:22.968Z,100755.49
2022-08-23T13:09:01.212Z,100758.50
2022-08-23T13:11:36.092Z,100758.46
2022-08-23T13:14:25.737Z,100762.92
2022-08-23T13:17:00.091Z,100770.45
2022-08-23T13:19:33.723Z,100772.39
2022-08-23T13:22:14.954Z,100772.73
2022-08-23T13:25:24.703Z,100778.85
2022-08-23T13:27:56.161Z,100786.80
2022-08-23T13:30:31.539Z,100789.71
2022-08-23T13:33:24.331Z,100789.40
2022-08-23T13:36:13.953Z,100785.61
2022-08-23T13:38:47.448Z,100781.44
2022-08-23T13:41:38.613Z,100778.02
2022-08-23T13:44:16.965Z,100778.17
2022-08-23T13:46:51.812Z,100777.52
2022-08-23T13:49:28.666Z,100774.91
2022-08-23T13:55:03.272Z,100777.55
2022-08-23T13:57:37.281Z,100765.69
2022-08-23T14:00:13.521Z,100784.08
2022-08-23T14:02:49.180Z,100782.69
2022-08-23T14:05:24.648Z,100785.91
2022-08-23T14:07:57.090Z,100772.19
2022-08-23T14:10:29.981Z,100784.43
2022-08-23T14:13:02.922Z,100782.88
2022-08-23T14:18:28.327Z,100747.50
2022-08-23T14:21:02.025Z,100771.80
2022-08-23T14:23:34.522Z,100769.20
2022-08-23T14:26:07.592Z,100765.73
2022-08-23T14:28:44.296Z,100749.86
2022-08-23T14:31:17.227Z,100748.97
2022-08-23T14:33:50.347Z,100757.41
2022-08-23T14:36:23.629Z,100756.73
2022-08-23T14:39:00.438Z,100740.84
2022-08-23T14:41:33.497Z,100751.30
2022-08-23T14:44:06.512Z,100748.33
2022-08-23T14:46:39.153Z,100743.86
2022-08-23T14:49:11.777Z,100742.27
2022-08-23T14:51:47.511Z,100739.41
2022-08-23T14:54:24.033Z,100742.73
2022-08-23T14:56:57.132Z,100740.56
2022-08-23T14:59:29.718Z,100733.82
2022-08-23T15:02:02.661Z,100744.82
2022-08-23T15:04:37.339Z,100743.20
2022-08-23T15:07:18.543Z,100717.26
2022-08-23T15:09:55.751Z,100741.11
2022-08-23T15:15:22.590Z,100741.73
2022-08-23T15:17:58.831Z,100740.63
2022-08-23T15:20:34.050Z,100740.27
2022-08-23T15:23:08.513Z,100740.27
2022-08-23T15:25:45.037Z,100735.61
2022-08-23T15:28:19.198Z,100735.55
2022-08-23T15:30:52.573Z,100732.80
2022-08-23T15:33:27.027Z,100736.15
2022-08-23T15:36:06.778Z,100725.10
2022-08-23T15:38:40.612Z,100734.73
2022-08-23T15:41:13.458Z,100739.39
2022-08-23T15:43:46.513Z,100747.96
2022-08-23T15:46:22.841Z,100754.52
2022-08-23T15:49:03.296Z,100756.49
2022-08-23T15:51:37.040Z,100744.36
2022-08-23T15:54:10.313Z,100761.16
2022-08-23T15:56:46.006Z,100761.04
2022-08-23T15:59:21.737Z,100766.69
2022-08-23T16:01:54.092Z,100772.46
2022-08-23T16:04:26.538Z,100762.39
2022-08-23T16:07:09.729Z,100774.46
2022-08-23T16:09:42.639Z,100762.11
2022-08-23T16:12:15.294Z,100769.55
2022-08-23T16:14:48.624Z,100771.27
2022-08-23T16:17:21.952Z,100761.29
2022-08-23T16:19:57.701Z,100771.36
2022-08-23T16:22:31.261Z,100775.61
2022-08-23T16:25:05.096Z,100778.98
2022-08-23T16:27:37.844Z,100782.95
2022-08-23T16:30:12.607Z,100786.23
2022-08-23T16:32:45.718Z,100790.33
2022-08-23T16:35:18.679Z,100791.36
2022-08-23T16:37:51.650Z,100789.77
2022-08-23T16:40:24.290Z,100794.48
2022-08-23T16:42:56.780Z,100796.23
2022-08-23T16:45:29.223Z,100800.37
2022-08-23T16:48:02.382Z,100797.80
2022-08-23T16:50:35.148Z,100787.98
2022-08-23T16:53:09.740Z,100797.78
2022-08-23T16:55:41.110Z,100796.32
2022-08-23T16:58:13.332Z,100802.91
2022-08-23T17:00:45.551Z,100804.02
2022-08-23T17:03:19.060Z,100807.61
2022-08-23T17:05:51.270Z,100804.48
2022-08-23T17:08:23.519Z,100805.77
2022-08-23T17:10:58.915Z,100794.04
2022-08-23T17:13:35.585Z,100807.80
2022-08-23T17:16:10.857Z,100811.38
2022-08-23T17:18:43.399Z,100811.95
2022-08-23T17:21:16.213Z,100814.20
2022-08-23T17:23:48.807Z,100819.29
2022-08-23T17:26:21.392Z,100822.29
2022-08-23T17:28:56.643Z,100823.05
2022-08-23T17:31:29.235Z,100817.51
2022-08-23T17:34:03.914Z,100822.11
2022-08-23T17:36:37.710Z,100810.11
2022-08-23T17:39:12.785Z,100822.46
2022-08-23T17:41:45.800Z,100824.24
2022-08-23T17:44:18.712Z,100825.04
2022-08-23T17:46:52.303Z,100825.03
2022-08-23T17:49:25.351Z,100825.16
2022-08-23T17:51:57.907Z,100829.02
2022-08-23T17:54:30.542Z,100835.51
2022-08-23T17:57:04.869Z,100840.48
2022-08-23T17:59:36.359Z,100841.54
2022-08-23T18:02:09.554Z,100845.52
2022-08-23T18:04:42.316Z,100840.30
2022-08-23T18:07:15.149Z,100839.29
2022-08-23T18:09:48.348Z,100840.04
2022-08-23T18:12:23.028Z,100845.96
2022-08-23T18:14:55.598Z,100852.67
2022-08-23T18:17:27.906Z,100847.16
2022-08-23T18:20:00.157Z,100854.52
2022-08-23T18:22:32.731Z,100854.96
2022-08-23T18:25:06.225Z,100858.80
2022-08-23T18:27:56.521Z,100858.96
2022-08-23T18:30:29.305Z,100858.95
2022-08-23T18:33:02.540Z,100862.12
2022-08-23T18:35:35.601Z,100862.84
2022-08-23T18:38:08.426Z,100863.77
2022-08-23T18:40:46.389Z,100863.27
2022-08-23T18:43:22.231Z,100854.93
2022-08-23T18:45:57.524Z,100863.73
2022-08-23T18:48:29.834Z,100864.64
2022-08-23T18:51:03.466Z,100863.44
2022-08-23T18:53:36.619Z,100864.69
2022-08-23T18:56:10.018Z,100871.49
2022-08-23T18:58:42.716Z,100880.68
2022-08-23T19:01:28.674Z,100874.77
2022-08-23T19:04:04.234Z,100875.04
2022-08-23T19:06:37.624Z,100876.12
2022-08-23T19:09:13.323Z,100879.52
2022-08-23T19:11:46.356Z,100879.61
2022-08-23T19:14:19.482Z,100883.45
2022-08-23T19:16:52.149Z,100883.35
2022-08-23T19:19:24.549Z,100883.86
2022-08-23T19:21:57.009Z,100884.31
2022-08-23T19:24:29.939Z,100883.75
2022-08-23T19:27:03.235Z,100874.02
2022-08-23T19:29:37.018Z,100891.45
2022-08-23T19:32:09.974Z,100893.61
2022-08-23T19:34:42.454Z,100897.80
2022-08-23T19:37:20.482Z,100906.13
2022-08-23T19:39:55.644Z,100910.77
2022-08-23T19:42:30.554Z,100910.48
2022-08-23T19:45:02.934Z,100911.89
2022-08-23T19:47:36.023Z,100903.04
2022-08-23T19:50:11.287Z,100919.63
2022-08-23T19:52:43.874Z,100924.10
2022-08-23T19:55:16.859Z,100923.30
2022-08-23T19:57:49.580Z,100924.69
2022-08-23T20:00:24.445Z,100929.98
2022-08-23T20:02:56.986Z,100928.54
2022-08-23T20:05:30.091Z,100934.16
2022-08-23T20:08:03.260Z,100933.31
2022-08-23T20:10:36.041Z,100918.41
2022-08-23T20:13:08.700Z,100934.92
2022-08-23T20:15:42.126Z,100930.49
2022-08-23T20:18:15.622Z,100929.93
2022-08-23T20:20:48.996Z,100923.74
2022-08-23T20:23:51.004Z,100922.18
2022-08-23T20:26:23.716Z,100920.69
2022-08-23T20:28:59.598Z,100917.70
2022-08-23T20:31:35.972Z,100912.64
2022-08-23T20:34:09.987Z,100911.77
2022-08-23T20:36:43.035Z,100913.20
2022-08-23T20:39:19.248Z,100915.04
2022-08-23T20:41:56.246Z,100919.55
2022-08-23T20:44:28.937Z,100918.83
2022-08-23T20:47:03.477Z,100903.06
2022-08-23T20:49:36.229Z,100918.88
2022-08-23T20:52:09.473Z,100920.84
2022-08-23T20:54:42.133Z,100909.52
2022-08-23T20:57:15.021Z,100922.80
2022-08-23T20:59:47.693Z,100923.15
2022-08-23T21:02:20.064Z,100918.67
2022-08-23T21:04:53.541Z,100919.00
2022-08-23T21:07:27.979Z,100920.33
2022-08-23T21:10:00.850Z,100919.19
2022-08-23T21:12:33.290Z,100922.11
2022-08-23T21:15:10.313Z,100928.61
2022-08-23T21:17:43.355Z,100922.66
2022-08-23T21:20:20.190Z,100920.95
2022-08-23T21:22:52.836Z,100918.23
2022-08-23T21:25:25.376Z,100913.23
2022-08-23T21:28:02.199Z,100897.69
2022-08-23T21:30:36.690Z,100917.98
2022-08-23T21:33:09.440Z,100918.98
2022-08-23T21:35:41.672Z,100912.67
2022-08-23T21:38:14.217Z,100903.27
2022-08-23T21:40:46.497Z,100911.65
2022-08-23T21:43:18.886Z,100916.80
2022-08-23T21:45:52.253Z,100912.45
2022-08-23T21:48:25.824Z,100911.80
2022-08-23T21:50:59.226Z,100915.04
2022-08-23T21:53:31.715Z,100914.17
2022-08-23T21:56:04.546Z,100912.35
2022-08-23T21:58:37.007Z,100918.75
2022-08-23T22:01:10.188Z,100919.74
2022-08-23T22:03:42.745Z,100917.52
2022-08-23T22:06:19.643Z,100915.20
2022-08-23T22:08:51.830Z,100903.27
2022-08-23T22:11:24.885Z,100913.27
2022-08-23T22:13:57.110Z,100914.81
2022-08-23T22:16:29.425Z,100906.92
2022-08-23T22:19:01.691Z,100918.69
2022-08-23T22:21:35.487Z,100913.95
2022-08-23T22:24:08.941Z,100917.82
2022-08-23T22:26:42.578Z,100912.75
2022-08-23T22:29:15.710Z,100908.27
2022-08-23T22:31:50.395Z,100897.22
2022-08-23T22:34:21.316Z,100912.23
2022-08-23T22:36:53.583Z,100916.38
2022-08-23T22:39:26.222Z,100911.02
2022-08-23T22:41:58.370Z,100914.71
2022-08-23T22:44:30.958Z,100910.92
2022-08-23T22:47:03.704Z,100911.75
2022-08-23T22:49:36.251Z,100915.95
2022-08-23T22:52:10.168Z,100914.60
2022-08-23T22:54:42.528Z,100912.29
2022-08-23T22:57:14.838Z,100910.58
2022-08-23T22:59:47.250Z,100893.41
2022-08-23T23:02:23.474Z,100904.93
2022-08-23T23:04:59.952Z,100902.94
2022-08-23T23:07:49.789Z,100900.04
2022-08-23T23:10:22.475Z,100898.59
2022-08-23T23:12:54.817Z,100904.55
2022-08-23T23:15:27.397Z,100905.83
2022-08-23T23:18:00.246Z,100915.33
2022-08-23T23:20:39.420Z,100916.98
2022-08-23T23:23:15.285Z,100924.23
2022-08-23T23:25:48.485Z,100926.31
2022-08-23T23:28:22.887Z,100926.65
2022-08-23T23:30:57.737Z,100905.66
2022-08-23T23:33:30.217Z,100916.48
2022-08-23T23:36:02.612Z,100919.27
2022-08-23T23:38:34.964Z,100920.88
2022-08-23T23:41:08.834Z,100921.54
2022-08-23T23:43:41.977Z,100919.82
2022-08-23T23:46:15.918Z,100922.02
2022-08-23T23:48:50.255Z,100919.11
2022-08-23T23:51:24.497Z,100920.58
2022-08-23T23:53:57.467Z,100918.19
2022-08-23T23:56:32.228Z,100914.01
2022-08-23T23:59:05.111Z,100920.39
